createdAt,value
2023-10-01T00:02:34.011Z,1019.3
2023-10-01T00:07:40.370Z,1019.4
2023-10-01T00:12:46.764Z,1019.4
2023-10-01T00:17:53.177Z,1019.4
2023-10-01T00:22:49.450Z,1019.5
2023-10-01T00:28:06.291Z,1019.6
2023-10-01T00:33:12.347Z,1019.4
2023-10-01T00:38:18.681Z,1019.5
2023-10-01T00:43:25.170Z,1019.3
2023-10-01T00:48:51.494Z,1019.3
2023-10-01T00:53:37.822Z,1019.3
2023-10-01T00:59:04.247Z,1019.3
2023-10-01T01:04:46.703Z,1019.2
2023-10-01T01:09:16.993Z,1019.0
2023-10-01T01:14:03.332Z,1019.0
2023-10-01T01:19:09.762Z,1019.0
2023-10-01T01:24:15.072Z,1018.8
2023-10-01T01:29:22.685Z,1018.7
2023-10-01T01:35:13.152Z,1018.8
2023-10-01T01:39:35.412Z,1018.8
2023-10-01T01:45:01.834Z,1018.7
2023-10-01T01:50:12.216Z,1018.8
2023-10-01T01:54:54.648Z,1018.7
2023-10-01T02:00:00.948Z,1018.8
2023-10-01T02:05:07.330Z,1018.7
2023-10-01T02:10:03.695Z,1018.6
2023-10-01T02:15:19.112Z,1018.6
2023-10-01T02:20:50.667Z,1018.6
2023-10-01T02:26:14.227Z,1018.6
2023-10-01T02:30:38.612Z,1018.6
2023-10-01T02:36:06.100Z,1018.7
2023-10-01T02:40:52.536Z,1018.7
2023-10-01T02:45:59.006Z,1018.7
2023-10-01T02:51:19.296Z,1018.7
2023-10-01T02:56:11.682Z,1018.7
2023-10-01T03:01:42.286Z,1018.7
2023-10-01T03:06:24.449Z,1018.7
2023-10-01T03:11:30.900Z,1018.6
2023-10-01T03:16:37.305Z,1018.6
2023-10-01T03:22:27.799Z,1018.5
2023-10-01T03:26:50.006Z,1018.4
2023-10-01T03:31:56.381Z,1018.5
2023-10-01T03:37:02.880Z,1018.5
2023-10-01T03:42:09.269Z,1018.4
2023-10-01T03:47:14.660Z,1018.4
2023-10-01T03:52:46.105Z,1018.4
2023-10-01T03:57:52.496Z,1018.4
2023-10-01T04:02:54.855Z,1018.4
2023-10-01T04:07:41.145Z,1018.4
2023-10-01T04:12:47.520Z,1018.4
2023-10-01T04:17:53.962Z,1018.4
2023-10-01T04:24:12.459Z,1018.4
2023-10-01T04:28:30.772Z,1018.4
2023-10-01T04:33:13.054Z,1018.4
2023-10-01T04:38:19.449Z,1018.4
2023-10-01T04:43:25.955Z,1018.3
2023-10-01T04:48:32.371Z,1018.2
2023-10-01T04:53:38.828Z,1018.2
2023-10-01T04:59:05.224Z,1018.3
2023-10-01T05:04:11.764Z,1018.4
2023-10-01T05:08:58.531Z,1018.3
2023-10-01T05:14:04.351Z,1018.3
2023-10-01T05:19:10.794Z,1018.3
2023-10-01T05:24:17.126Z,1018.4
2023-10-01T05:29:23.462Z,1018.4
2023-10-01T05:34:29.903Z,1018.6
2023-10-01T05:39:36.224Z,1018.6
2023-10-01T05:44:42.572Z,1018.7
2023-10-01T05:49:48.960Z,1018.6
2023-10-01T05:54:55.589Z,1018.5
2023-10-01T06:00:25.766Z,1018.5
2023-10-01T06:05:32.314Z,1018.6
2023-10-01T06:10:14.703Z,1018.6
2023-10-01T06:15:21.003Z,1018.6
2023-10-01T06:20:17.361Z,1018.6
2023-10-01T06:25:33.951Z,1018.6
2023-10-01T06:30:40.372Z,1018.5
2023-10-01T06:36:06.815Z,1018.6
2023-10-01T06:40:53.178Z,1018.7
2023-10-01T06:45:59.657Z,1018.7
2023-10-01T06:51:06.113Z,1018.7
2023-10-01T06:56:12.508Z,1018.6
2023-10-01T07:01:18.900Z,1018.6
2023-10-01T07:06:25.232Z,1018.6
2023-10-01T07:11:31.638Z,1018.5
2023-10-01T07:17:21.095Z,1018.7
2023-10-01T07:22:04.466Z,1018.7
2023-10-01T07:26:40.773Z,1018.7
2023-10-01T07:32:21.267Z,1018.7
2023-10-01T07:37:47.606Z,1018.6
2023-10-01T07:42:29.988Z,1018.5
2023-10-01T07:47:40.347Z,1018.5
2023-10-01T07:52:22.716Z,1018.6
2023-10-01T07:57:29.105Z,1018.7
2023-10-01T08:02:35.605Z,1018.7
2023-10-01T08:07:42.086Z,1018.7
2023-10-01T08:12:48.251Z,1018.8
2023-10-01T08:17:44.831Z,1018.8
2023-10-01T08:22:51.083Z,1018.8
2023-10-01T08:27:57.454Z,1018.8
2023-10-01T08:33:13.867Z,1018.8
2023-10-01T08:38:20.261Z,1018.7
2023-10-01T08:43:26.700Z,1018.7
2023-10-01T08:48:33.034Z,1018.6
2023-10-01T08:53:39.372Z,1018.7
2023-10-01T08:58:45.734Z,1018.5
2023-10-01T09:03:52.305Z,1018.7
2023-10-01T09:08:59.240Z,1018.9
2023-10-01T09:14:05.393Z,1018.9
2023-10-01T09:19:12.831Z,1018.7
2023-10-01T09:24:19.139Z,1018.7
2023-10-01T09:29:25.720Z,1018.5
2023-10-01T09:34:31.175Z,1018.5
2023-10-01T09:39:38.502Z,1018.5
2023-10-01T09:44:44.879Z,1018.4
2023-10-01T09:50:14.322Z,1018.4
2023-10-01T09:55:17.681Z,1018.5
2023-10-01T10:00:03.988Z,1018.2
2023-10-01T10:05:34.515Z,1018.0
2023-10-01T10:10:16.943Z,1017.9
2023-10-01T10:15:23.283Z,1018.0
2023-10-01T10:20:42.132Z,1017.8
2023-10-01T10:26:47.222Z,1018.0
2023-10-01T10:31:20.565Z,1018.0
2023-10-01T10:36:26.924Z,1017.8
2023-10-01T10:41:53.367Z,1017.8
2023-10-01T10:46:39.765Z,1017.8
2023-10-01T10:52:10.335Z,1017.8
2023-10-01T10:57:12.678Z,1017.6
2023-10-01T11:01:59.115Z,1017.6
2023-10-01T11:07:05.668Z,1017.5
2023-10-01T11:12:11.908Z,1017.4
2023-10-01T11:17:18.294Z,1017.3
2023-10-01T11:22:48.783Z,1017.4
2023-10-01T11:27:51.107Z,1017.2
2023-10-01T11:32:37.786Z,1017.5
2023-10-01T11:38:07.965Z,1017.4
2023-10-01T11:42:40.265Z,1017.3
2023-10-01T11:47:56.765Z,1017.5
2023-10-01T11:53:27.091Z,1017.4
2023-10-01T11:58:09.434Z,1017.4
2023-10-01T12:03:43.587Z,1017.3
2023-10-01T12:08:25.808Z,1017.1
2023-10-01T12:13:22.197Z,1017.0
2023-10-01T12:18:28.672Z,1017.1
2023-10-01T12:23:45.094Z,1016.9
2023-10-01T12:28:51.565Z,1016.8
2023-10-01T12:34:22.114Z,1016.7
2023-10-01T12:39:28.786Z,1016.7
2023-10-01T12:44:34.848Z,1016.8
2023-10-01T12:49:07.143Z,1016.9
2023-10-01T12:54:23.544Z,1016.8
2023-10-01T13:00:14.045Z,1016.8
2023-10-01T13:04:36.441Z,1017.1
2023-10-01T13:09:32.771Z,1016.9
2023-10-01T13:14:49.159Z,1016.9
2023-10-01T13:19:55.573Z,1016.6
2023-10-01T13:25:01.959Z,1016.8
2023-10-01T13:30:07.314Z,1016.8
2023-10-01T13:35:58.990Z,1016.8
2023-10-01T13:41:05.173Z,1016.6
2023-10-01T13:46:30.635Z,1016.9
2023-10-01T13:50:52.864Z,1016.9
2023-10-01T13:56:04.446Z,1016.9
2023-10-01T14:01:06.894Z,1016.7
2023-10-01T14:06:17.245Z,1016.4
2023-10-01T14:11:39.828Z,1016.3
2023-10-01T14:16:06.091Z,1016.2
2023-10-01T14:21:12.562Z,1016.0
2023-10-01T14:26:38.991Z,1016.5
2023-10-01T14:31:25.454Z,1016.3
2023-10-01T14:36:31.707Z,1016.0
2023-10-01T14:41:38.075Z,1015.9
2023-10-01T14:46:44.579Z,1015.9
2023-10-01T14:51:50.791Z,1016.0
2023-10-01T14:56:57.975Z,1016.0
2023-10-01T15:02:03.826Z,1015.9
2023-10-01T15:07:09.920Z,1015.8
2023-10-01T15:12:32.870Z,1015.9
2023-10-01T15:17:23.163Z,1015.9
2023-10-01T15:22:29.390Z,1015.9
2023-10-01T15:27:26.360Z,1015.8
2023-10-01T15:32:42.280Z,1015.9
2023-10-01T15:37:48.607Z,1015.8
2023-10-01T15:42:55.879Z,1015.8
2023-10-01T15:48:01.846Z,1015.7
2023-10-01T15:53:08.183Z,1015.8
2023-10-01T15:58:14.608Z,1015.8
2023-10-01T16:03:41.141Z,1015.9
2023-10-01T16:08:27.308Z,1015.8
2023-10-01T16:13:33.712Z,1015.9
2023-10-01T16:18:41.172Z,1016.0
2023-10-01T16:28:53.149Z,1015.9
2023-10-01T16:35:01.667Z,1015.9
2023-10-01T16:39:33.988Z,1015.9
2023-10-01T16:44:12.338Z,1015.9
2023-10-01T16:49:18.742Z,1015.9
2023-10-01T16:54:25.059Z,1015.8
2023-10-01T16:59:51.499Z,1015.8
2023-10-01T17:04:37.807Z,1015.8
2023-10-01T17:09:44.151Z,1015.8
2023-10-01T17:14:50.519Z,1015.9
2023-10-01T17:19:47.015Z,1015.9
2023-10-01T17:25:03.260Z,1015.9
2023-10-01T17:30:09.753Z,1016.0
2023-10-01T17:35:06.253Z,1015.9
2023-10-01T17:40:22.755Z,1016.0
2023-10-01T17:45:29.205Z,1016.0
2023-10-01T17:50:35.713Z,1016.0
2023-10-01T17:55:42.142Z,1016.1
2023-10-01T18:00:48.525Z,1016.1
2023-10-01T18:05:54.889Z,1016.0
2023-10-01T18:11:21.272Z,1016.0
2023-10-01T18:15:58.030Z,1016.0
2023-10-01T18:21:14.002Z,1016.0
2023-10-01T18:26:20.348Z,1016.0
2023-10-01T18:33:16.822Z,1016.0
2023-10-01T18:37:13.078Z,1016.1
2023-10-01T18:42:52.470Z,1016.1
2023-10-01T18:47:25.312Z,1016.1
2023-10-01T18:52:32.656Z,1016.1
2023-10-01T18:58:32.222Z,1016.1
2023-10-01T19:03:43.538Z,1016.0
2023-10-01T19:08:27.030Z,1016.1
2023-10-01T19:13:32.790Z,1016.1
2023-10-01T19:18:39.733Z,1016.1
2023-10-01T19:23:46.342Z,1016.0
2023-10-01T19:28:52.696Z,1016.1
2023-10-01T19:33:59.351Z,1016.0
2023-10-01T19:39:25.538Z,1016.0
2023-10-01T19:44:11.817Z,1016.0
2023-10-01T19:49:18.447Z,1016.0
2023-10-01T19:54:14.948Z,1016.0
2023-10-01T19:59:31.565Z,1016.0
2023-10-01T20:04:38.088Z,1016.0
2023-10-01T20:09:45.537Z,1016.0
2023-10-01T20:14:52.285Z,1015.9
2023-10-01T20:19:58.547Z,1015.9
2023-10-01T20:25:04.888Z,1015.8
2023-10-01T20:33:25.465Z,1015.8
2023-10-01T20:35:21.412Z,1015.8
2023-10-01T20:40:27.828Z,1015.7
2023-10-01T20:45:34.313Z,1015.6
2023-10-01T20:50:39.743Z,1015.7
2023-10-01T20:55:47.136Z,1015.7
2023-10-01T21:00:53.502Z,1015.8
2023-10-01T21:06:01.119Z,1015.7
2023-10-01T21:11:26.516Z,1015.8
2023-10-01T21:16:14.164Z,1015.7
2023-10-01T21:21:20.579Z,1015.7
2023-10-01T21:26:30.987Z,1015.8
2023-10-01T21:31:33.487Z,1015.9
2023-10-01T21:36:39.842Z,1015.9
2023-10-01T21:41:46.169Z,1015.8
2023-10-01T21:46:52.637Z,1015.8
2023-10-01T21:51:58.999Z,1015.8
2023-10-01T21:57:05.451Z,1015.8
2023-10-01T22:02:32.023Z,1015.7
2023-10-01T22:07:18.208Z,1015.7
2023-10-01T22:12:24.708Z,1015.6
2023-10-01T22:17:31.105Z,1015.8
2023-10-01T22:22:49.922Z,1015.7
2023-10-01T22:27:44.053Z,1015.7
2023-10-01T22:33:32.689Z,1015.7
2023-10-01T22:37:57.101Z,1015.8
2023-10-01T22:43:04.373Z,1015.7
2023-10-01T22:48:34.868Z,1015.7
2023-10-01T22:53:17.228Z,1015.7
2023-10-01T22:58:23.605Z,1015.7
2023-10-01T23:04:14.094Z,1015.7
2023-10-01T23:08:36.460Z,1015.8
2023-10-01T23:13:42.837Z,1015.8
2023-10-01T23:18:49.207Z,1015.8
2023-10-01T23:24:00.100Z,1015.8
2023-10-01T23:29:01.291Z,1015.8
2023-10-01T23:34:42.779Z,1015.9
2023-10-01T23:39:51.713Z,1015.9
2023-10-01T23:44:58.086Z,1015.8
2023-10-01T23:50:28.484Z,1015.9
2023-10-01T23:55:55.347Z,1015.9
